CYHU

Montréal / Saint-Hubert Airport

Montréal, Quebec, Canada
METAR CYHU 161900Z AUTO 16006KT 140V250 9SM FEW120 32/17 A2987 RMK SLP116 DENSITY ALT 2000FT
Observed Flight Rules
Jul-16 @ 19:00 UTC (57 minutes ago) Visual Flight Rules
Wind Visibility Clouds
160° at 6 knots 9 miles
  • Few at 12,000' AGL
Temperatures Readings
Current 32°C / 90°F
Dewpoint 17°C / 63°F
Humidity 41%
Altimeter 29.87" Hg
Pressure 1011.6 hPa
Elevation 27
METAR CYHU 161900Z AUTO 16006KT 140V250 9SM FEW120 32/17 A2987 RMK SLP116 DENSITY ALT 2000FT
Observed Flight Rules
Jul-16 @ 19:00 UTC
(57 minutes ago)
VFR
Wind Visibility
160° at 6 knots 9 miles
Clouds
  • Few at 12,000' AGL
Temperature Dewpoint
32°C / 90°F 17°C / 63°F
Humidity Altimeter Pressure
41% 29.87" Hg 1011.6 hPa